Time;durP1;ratioP1;P1;durP2;ratioP2;P2;SDS_P1;SDS_P2;PMS_P1;PMS_P2;Temp;Humidity;BMP_temperature;BMP_pressure;BME280_temperature;BME280_humidity;BME280_pressure;Samples;Min_cycle;Max_cycle;Signal;HPM_P1;HPM_P2
2023/05/11 00:02:15;;;;;;;1.17;1.03;;;;;;;;;;5045225;28;20226;-39
2023/05/11 00:04:42;;;;;;;1.27;0.87;;;;;;;;;;5044353;28;20199;-38
2023/05/11 00:07:09;;;;;;;1.90;0.97;;;;;;;;;;5015093;28;20234;-37
2023/05/11 00:09:37;;;;;;;2.57;1.10;;;;;;;;;;5028524;28;20312;-37
2023/05/11 00:12:04;;;;;;;1.17;1.10;;;;;;;;;;5021941;28;20261;-42
2023/05/11 00:14:33;;;;;;;2.10;1.00;;;;;;;;;;5011996;28;20210;-39
2023/05/11 00:17:00;;;;;;;1.53;1.43;;;;;;;;;;5023182;28;20222;-44
2023/05/11 00:19:30;;;;;;;2.70;1.10;;;;;;;;;;5023655;28;20211;-42
2023/05/11 00:21:57;;;;;;;2.63;1.00;;;;;;;;;;5052025;28;20213;-41
2023/05/11 00:24:24;;;;;;;1.53;1.10;;;;;;;;;;5032271;28;20648;-39
2023/05/11 00:26:51;;;;;;;0.70;0.70;;;;;;;;;;5030856;28;20225;-37
2023/05/11 00:29:18;;;;;;;3.50;0.87;;;;;;;;;;5042303;28;20212;-39
2023/05/11 00:31:47;;;;;;;4.07;0.90;;;;;;;;;;5025567;28;20218;-40
2023/05/11 00:34:14;;;;;;;1.13;0.80;;;;;;;;;;5016439;28;20204;-38
2023/05/11 00:36:41;;;;;;;0.80;0.80;;;;;;;;;;5011866;28;20227;-41
2023/05/11 00:39:09;;;;;;;0.60;0.60;;;;;;;;;;5012652;28;20196;-41
2023/05/11 00:41:36;;;;;;;1.20;1.10;;;;;;;;;;5012339;28;20280;-36
2023/05/11 00:44:03;;;;;;;1.93;0.57;;;;;;;;;;5031047;28;20599;-40
2023/05/11 00:46:30;;;;;;;1.47;0.70;;;;;;;;;;5020270;28;20249;-38
2023/05/11 00:48:58;;;;;;;2.10;0.90;;;;;;;;;;5018311;28;20219;-39
2023/05/11 00:51:26;;;;;;;0.60;0.60;;;;;;;;;;5044329;28;20202;-43
2023/05/11 00:53:53;;;;;;;6.53;0.90;;;;;;;;;;5046484;28;20206;-40
2023/05/11 00:56:20;;;;;;;1.47;0.70;;;;;;;;;;5015734;28;20236;-40
2023/05/11 00:58:48;;;;;;;0.80;0.80;;;;;;;;;;5021601;28;20210;-41
2023/05/11 01:01:16;;;;;;;1.10;0.80;;;;;;;;;;5021647;28;20225;-42
2023/05/11 01:03:44;;;;;;;0.60;0.60;;;;;;;;;;5037778;28;20652;-44
2023/05/11 01:06:16;;;;;;;1.17;0.80;;;;;;;;;;5035506;28;20222;-43
2023/05/11 01:08:45;;;;;;;1.17;1.07;;;;;;;;;;5031287;28;20695;-41
2023/05/11 01:11:16;;;;;;;0.90;0.90;;;;;;;;;;5012320;28;20214;-38
2023/05/11 01:13:43;;;;;;;1.53;0.90;;;;;;;;;;5036940;28;20206;-41
2023/05/11 01:16:15;;;;;;;1.50;0.90;;;;;;;;;;5024472;28;20222;-41
2023/05/11 01:18:44;;;;;;;0.70;0.70;;;;;;;;;;5036707;28;20206;-41
2023/05/11 01:21:14;;;;;;;0.60;0.60;;;;;;;;;;5045227;28;20274;-43
2023/05/11 01:23:59;;;;;;;0.80;0.80;;;;;;;;;;5039380;28;20214;-38
2023/05/11 01:26:35;;;;;;;1.50;0.60;;;;;;;;;;5037422;28;20584;-43
2023/05/11 01:29:22;;;;;;;0.77;0.77;;;;;;;;;;5036878;28;20640;-41
2023/05/11 01:31:54;;;;;;;0.70;0.70;;;;;;;;;;5003291;28;20199;-40
2023/05/11 01:34:23;;;;;;;0.60;0.60;;;;;;;;;;5034190;28;20237;-41
2023/05/11 01:36:52;;;;;;;0.83;0.80;;;;;;;;;;5029999;28;20230;-39
2023/05/11 01:39:21;;;;;;;0.67;0.67;;;;;;;;;;5037192;28;20194;-37
2023/05/11 01:41:50;;;;;;;0.60;0.60;;;;;;;;;;5019809;28;20203;-42
2023/05/11 01:44:19;;;;;;;0.93;0.70;;;;;;;;;;5038844;28;20209;-42
2023/05/11 01:46:47;;;;;;;1.60;0.80;;;;;;;;;;5028394;28;20230;-40
2023/05/11 01:49:16;;;;;;;3.90;1.10;;;;;;;;;;5034912;28;20631;-40
2023/05/11 01:51:44;;;;;;;1.07;0.87;;;;;;;;;;5030711;28;20624;-41
2023/05/11 01:54:12;;;;;;;1.03;0.93;;;;;;;;;;5025313;28;20203;-35
2023/05/11 01:56:41;;;;;;;0.70;0.70;;;;;;;;;;5022980;28;20237;-38
2023/05/11 01:59:09;;;;;;;0.70;0.70;;;;;;;;;;5033819;28;20224;-41
2023/05/11 02:01:36;;;;;;;0.73;0.73;;;;;;;;;;5028722;28;20225;-38
2023/05/11 02:04:05;;;;;;;0.70;0.70;;;;;;;;;;5044420;28;20198;-41
2023/05/11 02:06:35;;;;;;;1.93;1.17;;;;;;;;;;5030257;28;20257;-42
2023/05/11 02:09:02;;;;;;;1.67;0.80;;;;;;;;;;5030653;28;20235;-37
2023/05/11 02:11:30;;;;;;;0.70;0.70;;;;;;;;;;5026490;28;20735;-40
2023/05/11 02:13:57;;;;;;;0.83;0.80;;;;;;;;;;5029333;28;20202;-39
2023/05/11 02:16:26;;;;;;;0.80;0.80;;;;;;;;;;5023181;28;20238;-37
2023/05/11 02:18:54;;;;;;;3.10;1.00;;;;;;;;;;5037538;28;20226;-41
2023/05/11 02:21:22;;;;;;;0.70;0.70;;;;;;;;;;5030199;28;20210;-43
2023/05/11 02:23:51;;;;;;;0.77;0.77;;;;;;;;;;5026925;28;20210;-38
2023/05/11 02:26:18;;;;;;;0.87;0.87;;;;;;;;;;5029037;28;20233;-45
2023/05/11 02:28:46;;;;;;;3.23;0.90;;;;;;;;;;5031005;28;20211;-40
2023/05/11 02:31:17;;;;;;;0.97;0.80;;;;;;;;;;5032343;28;20198;-36
2023/05/11 02:33:48;;;;;;;4.63;0.97;;;;;;;;;;5030077;28;20209;-33
2023/05/11 02:36:16;;;;;;;3.10;0.70;;;;;;;;;;5045893;28;20218;-39
2023/05/11 02:38:44;;;;;;;2.03;1.00;;;;;;;;;;5024829;28;20207;-38
2023/05/11 02:41:13;;;;;;;1.83;1.03;;;;;;;;;;5035737;28;20235;-37
2023/05/11 02:43:44;;;;;;;3.70;0.87;;;;;;;;;;5049318;28;20198;-40
2023/05/11 02:46:14;;;;;;;3.67;0.80;;;;;;;;;;5019830;28;20238;-37
2023/05/11 02:48:43;;;;;;;2.43;0.70;;;;;;;;;;5027234;28;20250;-39
2023/05/11 02:51:11;;;;;;;4.30;0.90;;;;;;;;;;5029286;28;20662;-38
2023/05/11 02:53:40;;;;;;;3.40;0.80;;;;;;;;;;5029884;28;20198;-39
2023/05/11 02:56:08;;;;;;;2.67;1.07;;;;;;;;;;5023607;28;20729;-36
2023/05/11 02:58:36;;;;;;;2.90;0.70;;;;;;;;;;5037561;28;20216;-41
2023/05/11 03:01:07;;;;;;;0.67;0.67;;;;;;;;;;5026515;28;20213;-39
2023/05/11 03:03:34;;;;;;;0.83;0.83;;;;;;;;;;5028019;28;20206;-39
2023/05/11 03:06:01;;;;;;;0.70;0.70;;;;;;;;;;5048946;28;20244;-41
2023/05/11 03:08:28;;;;;;;0.77;0.73;;;;;;;;;;5029992;28;20696;-37
2023/05/11 03:10:56;;;;;;;0.80;0.80;;;;;;;;;;5048013;28;20650;-40
2023/05/11 03:13:25;;;;;;;1.63;0.73;;;;;;;;;;5033111;28;20210;-39
2023/05/11 03:15:54;;;;;;;3.60;0.80;;;;;;;;;;5020176;28;20220;-42
2023/05/11 03:18:21;;;;;;;2.77;0.70;;;;;;;;;;5034574;28;20732;-37
2023/05/11 03:20:50;;;;;;;1.13;0.50;;;;;;;;;;5029271;28;20593;-43
2023/05/11 03:23:18;;;;;;;0.90;0.90;;;;;;;;;;5023875;28;20211;-38
2023/05/11 03:25:46;;;;;;;0.93;0.80;;;;;;;;;;5031854;28;20537;-38
2023/05/11 03:28:14;;;;;;;0.73;0.70;;;;;;;;;;5034308;28;20230;-40
2023/05/11 03:30:43;;;;;;;1.27;0.80;;;;;;;;;;5032554;28;20207;-43
2023/05/11 03:33:12;;;;;;;1.80;0.80;;;;;;;;;;5038268;28;20405;-37
2023/05/11 03:35:41;;;;;;;0.70;0.60;;;;;;;;;;5030660;28;20226;-37
2023/05/11 03:38:08;;;;;;;1.17;0.70;;;;;;;;;;5030084;28;20202;-44
2023/05/11 03:40:37;;;;;;;1.03;0.80;;;;;;;;;;5029707;28;20208;-35
2023/05/11 03:43:05;;;;;;;1.70;0.60;;;;;;;;;;5052064;28;20231;-43
2023/05/11 03:45:33;;;;;;;0.70;0.70;;;;;;;;;;5030721;28;20230;-40
2023/05/11 03:48:01;;;;;;;0.70;0.70;;;;;;;;;;5033327;28;20213;-39
2023/05/11 03:50:29;;;;;;;2.37;1.00;;;;;;;;;;5044290;28;20207;-39
2023/05/11 03:52:56;;;;;;;1.10;1.00;;;;;;;;;;5034779;28;20624;-41
2023/05/11 03:55:23;;;;;;;0.77;0.77;;;;;;;;;;5023329;28;20223;-40
2023/05/11 03:57:51;;;;;;;1.20;0.90;;;;;;;;;;5035161;28;20206;-38
2023/05/11 04:00:19;;;;;;;0.97;0.87;;;;;;;;;;5025730;28;20218;-38
2023/05/11 04:02:46;;;;;;;0.90;0.80;;;;;;;;;;5032199;28;20218;-34
2023/05/11 04:05:13;;;;;;;0.73;0.73;;;;;;;;;;5032704;28;20230;-39
2023/05/11 04:07:42;;;;;;;0.60;0.53;;;;;;;;;;5041497;28;20211;-39
2023/05/11 04:10:09;;;;;;;1.97;0.70;;;;;;;;;;5030228;28;20233;-41
2023/05/11 04:12:36;;;;;;;0.80;0.80;;;;;;;;;;5034884;28;20202;-34
2023/05/11 04:15:04;;;;;;;4.03;0.63;;;;;;;;;;5020561;28;20217;-36
2023/05/11 04:17:31;;;;;;;0.57;0.57;;;;;;;;;;5032883;28;20212;-40
2023/05/11 04:19:58;;;;;;;1.60;0.80;;;;;;;;;;5034451;28;20557;-40
2023/05/11 04:22:25;;;;;;;0.80;0.80;;;;;;;;;;5034521;28;20202;-38
2023/05/11 04:24:53;;;;;;;4.27;0.80;;;;;;;;;;5028963;28;20229;-40
2023/05/11 04:27:21;;;;;;;0.60;0.60;;;;;;;;;;5029916;28;20212;-39
2023/05/11 04:29:48;;;;;;;0.80;0.80;;;;;;;;;;5018436;28;20226;-37
2023/05/11 04:32:15;;;;;;;1.37;0.70;;;;;;;;;;5022677;28;20210;-36
2023/05/11 04:34:42;;;;;;;0.93;0.77;;;;;;;;;;5022911;28;20246;-44
2023/05/11 04:37:09;;;;;;;2.00;0.70;;;;;;;;;;5030114;28;20587;-42
2023/05/11 04:39:37;;;;;;;1.17;0.67;;;;;;;;;;5029045;28;20203;-37
2023/05/11 04:42:05;;;;;;;2.77;0.77;;;;;;;;;;5050630;28;20202;-41
2023/05/11 04:44:32;;;;;;;0.70;0.70;;;;;;;;;;5020662;28;20211;-42
2023/05/11 04:46:59;;;;;;;0.70;0.70;;;;;;;;;;5034911;28;20228;-39
2023/05/11 04:49:26;;;;;;;1.20;0.90;;;;;;;;;;5034048;28;20222;-36
2023/05/11 04:51:53;;;;;;;0.87;0.80;;;;;;;;;;5033064;28;20217;-42
2023/05/11 04:54:20;;;;;;;1.00;1.00;;;;;;;;;;5030831;28;20214;-37
2023/05/11 04:56:47;;;;;;;0.70;0.70;;;;;;;;;;5037904;28;20245;-38
2023/05/11 04:59:16;;;;;;;0.80;0.80;;;;;;;;;;5014179;28;20638;-35
2023/05/11 05:01:43;;;;;;;0.70;0.70;;;;;;;;;;5034671;28;20218;-39
2023/05/11 05:04:10;;;;;;;3.90;0.80;;;;;;;;;;5031910;28;20209;-37
2023/05/11 05:06:38;;;;;;;0.80;0.80;;;;;;;;;;5033250;28;20221;-42
2023/05/11 05:09:05;;;;;;;0.70;0.70;;;;;;;;;;5026995;28;20224;-43
2023/05/11 05:11:32;;;;;;;0.93;0.93;;;;;;;;;;5032545;28;20219;-37
2023/05/11 05:13:59;;;;;;;3.90;0.87;;;;;;;;;;5028082;28;20206;-37
2023/05/11 05:16:28;;;;;;;0.80;0.80;;;;;;;;;;5029732;28;20315;-40
2023/05/11 05:18:55;;;;;;;0.87;0.73;;;;;;;;;;5028410;28;20209;-37
2023/05/11 05:21:22;;;;;;;0.83;0.83;;;;;;;;;;5053277;28;20219;-37
2023/05/11 05:23:49;;;;;;;2.60;1.13;;;;;;;;;;5045307;28;20683;-41
2023/05/11 05:26:16;;;;;;;0.83;0.83;;;;;;;;;;5040037;28;20226;-34
2023/05/11 05:28:43;;;;;;;4.47;1.00;;;;;;;;;;5043945;28;20201;-37
2023/05/11 05:31:10;;;;;;;1.10;1.03;;;;;;;;;;5032043;28;20210;-40
2023/05/11 05:33:39;;;;;;;1.03;0.80;;;;;;;;;;5049590;28;20222;-37
2023/05/11 05:36:06;;;;;;;1.00;1.00;;;;;;;;;;5033438;28;20241;-40
2023/05/11 05:38:33;;;;;;;1.97;1.00;;;;;;;;;;5033333;28;20213;-44
2023/05/11 05:41:01;;;;;;;1.30;0.90;;;;;;;;;;5020707;28;20778;-40
2023/05/11 05:43:29;;;;;;;0.97;0.97;;;;;;;;;;5033286;28;20201;-42
2023/05/11 05:45:56;;;;;;;1.00;1.00;;;;;;;;;;5025878;28;20279;-40
2023/05/11 05:48:23;;;;;;;1.00;1.00;;;;;;;;;;5043278;28;20210;-38
2023/05/11 05:50:52;;;;;;;2.53;2.33;;;;;;;;;;5032374;28;20691;-40
2023/05/11 05:53:19;;;;;;;0.80;0.80;;;;;;;;;;5028054;28;20290;-40
2023/05/11 05:55:46;;;;;;;2.10;1.00;;;;;;;;;;5040691;28;20584;-37
2023/05/11 05:58:13;;;;;;;0.80;0.80;;;;;;;;;;5047904;28;20216;-43
2023/05/11 06:03:08;;;;;;;1.63;0.87;;;;;;;;;;5057205;28;20213;-27
2023/05/11 06:05:36;;;;;;;1.30;1.00;;;;;;;;;;5063439;28;20243;-28
2023/05/11 06:08:04;;;;;;;1.00;0.80;;;;;;;;;;5031244;28;20208;-28
2023/05/11 06:10:31;;;;;;;1.47;1.17;;;;;;;;;;5036049;28;20224;-29
2023/05/11 06:12:58;;;;;;;1.30;1.07;;;;;;;;;;5041948;28;20313;-26
2023/05/11 06:15:26;;;;;;;0.90;0.90;;;;;;;;;;5041217;28;20226;-29
2023/05/11 06:17:53;;;;;;;0.93;0.90;;;;;;;;;;5031539;28;20228;-27
2023/05/11 06:20:20;;;;;;;0.80;0.80;;;;;;;;;;5043859;28;20244;-26
2023/05/11 06:22:47;;;;;;;1.13;1.03;;;;;;;;;;5036686;28;20694;-28
2023/05/11 06:25:16;;;;;;;0.70;0.70;;;;;;;;;;5040976;28;20228;-28
2023/05/11 06:27:45;;;;;;;1.93;1.00;;;;;;;;;;5041597;28;20215;-27
2023/05/11 06:30:13;;;;;;;2.13;1.30;;;;;;;;;;5039202;28;20246;-27
2023/05/11 06:32:40;;;;;;;1.30;1.00;;;;;;;;;;5038185;28;20210;-28
2023/05/11 06:35:07;;;;;;;1.00;1.00;;;;;;;;;;5040193;28;20218;-28
2023/05/11 06:37:34;;;;;;;2.77;2.50;;;;;;;;;;5038767;28;20200;-25
2023/05/11 06:40:02;;;;;;;0.80;0.80;;;;;;;;;;5035850;28;20205;-28
2023/05/11 06:42:30;;;;;;;0.70;0.70;;;;;;;;;;5036509;28;20214;-28
2023/05/11 06:44:57;;;;;;;1.37;1.07;;;;;;;;;;5039445;28;20228;-26
2023/05/11 06:47:24;;;;;;;2.90;1.33;;;;;;;;;;5035600;28;20213;-30
2023/05/11 06:49:52;;;;;;;2.33;2.23;;;;;;;;;;5038604;28;20215;-27
2023/05/11 06:52:19;;;;;;;39.03;4.77;;;;;;;;;;5039518;28;20210;-31
2023/05/11 06:54:46;;;;;;;1.70;1.23;;;;;;;;;;5034787;28;20628;-31
2023/05/11 06:57:13;;;;;;;1.17;1.07;;;;;;;;;;5039014;28;20211;-26
2023/05/11 06:59:42;;;;;;;1.90;1.20;;;;;;;;;;5034237;28;20205;-29
2023/05/11 07:02:10;;;;;;;2.80;1.60;;;;;;;;;;5041320;28;20214;-27
2023/05/11 07:04:37;;;;;;;1.47;1.30;;;;;;;;;;5037463;28;20355;-31
2023/05/11 07:07:04;;;;;;;1.10;1.10;;;;;;;;;;5041517;28;20217;-28
2023/05/11 07:09:31;;;;;;;1.80;1.37;;;;;;;;;;5034963;28;20286;-27
2023/05/11 07:11:59;;;;;;;2.07;1.60;;;;;;;;;;5040673;28;20299;-26
2023/05/11 07:14:26;;;;;;;2.43;1.60;;;;;;;;;;5037206;28;20955;-28
2023/05/11 07:16:54;;;;;;;2.00;1.70;;;;;;;;;;5042564;28;20219;-30
2023/05/11 07:19:21;;;;;;;2.50;1.10;;;;;;;;;;5039778;28;20208;-26
2023/05/11 07:21:48;;;;;;;1.07;1.07;;;;;;;;;;5045802;28;20208;-27
2023/05/11 07:24:15;;;;;;;2.03;1.20;;;;;;;;;;5038458;28;20214;-28
2023/05/11 07:26:42;;;;;;;1.40;1.30;;;;;;;;;;5042613;28;20227;-30
2023/05/11 07:29:09;;;;;;;1.37;1.23;;;;;;;;;;5042181;28;20202;-30
2023/05/11 07:31:36;;;;;;;1.30;1.20;;;;;;;;;;5043602;28;20236;-29
2023/05/11 07:34:05;;;;;;;1.07;1.07;;;;;;;;;;5043895;28;20202;-29
2023/05/11 07:36:32;;;;;;;1.97;0.90;;;;;;;;;;5040508;28;20218;-29
2023/05/11 07:39:00;;;;;;;1.37;1.10;;;;;;;;;;5038185;28;20209;-28
2023/05/11 07:41:27;;;;;;;1.70;1.07;;;;;;;;;;5041123;28;20201;-32
2023/05/11 07:43:54;;;;;;;0.97;0.93;;;;;;;;;;5041395;28;20198;-29
2023/05/11 07:46:21;;;;;;;2.10;1.00;;;;;;;;;;5041675;28;20222;-27
2023/05/11 07:48:48;;;;;;;1.20;1.20;;;;;;;;;;5041233;28;20208;-30
2023/05/11 07:51:17;;;;;;;1.43;1.20;;;;;;;;;;5043969;28;20220;-29
2023/05/11 07:53:44;;;;;;;1.40;1.30;;;;;;;;;;5037492;28;20198;-30
2023/05/11 07:56:11;;;;;;;0.90;0.90;;;;;;;;;;5042164;28;20229;-30
2023/05/11 07:58:38;;;;;;;1.17;1.00;;;;;;;;;;5044651;28;20213;-30
2023/05/11 08:01:06;;;;;;;1.57;1.33;;;;;;;;;;5038761;28;20216;-28
2023/05/11 08:03:33;;;;;;;1.40;1.27;;;;;;;;;;5041458;28;20201;-28
2023/05/11 08:06:00;;;;;;;1.20;1.10;;;;;;;;;;5043957;28;20224;-31
2023/05/11 08:08:29;;;;;;;2.17;0.97;;;;;;;;;;5042901;28;20202;-27
2023/05/11 08:10:56;;;;;;;1.17;1.00;;;;;;;;;;5041728;28;20227;-28
2023/05/11 08:13:23;;;;;;;2.67;1.10;;;;;;;;;;5043065;28;20209;-30
2023/05/11 08:15:50;;;;;;;1.40;1.20;;;;;;;;;;5037216;28;20231;-30
2023/05/11 08:18:18;;;;;;;1.20;1.10;;;;;;;;;;5046011;28;20205;-28
2023/05/11 08:20:45;;;;;;;1.73;1.00;;;;;;;;;;5043719;28;20207;-30
2023/05/11 08:23:16;;;;;;;1.00;1.00;;;;;;;;;;5042382;28;20316;-28
2023/05/11 08:25:50;;;;;;;1.27;1.23;;;;;;;;;;5043657;28;20243;-30
2023/05/11 08:28:17;;;;;;;1.27;1.17;;;;;;;;;;5042855;28;20198;-25
2023/05/11 08:30:45;;;;;;;1.07;1.00;;;;;;;;;;5043545;28;20221;-27
2023/05/11 08:33:12;;;;;;;3.07;1.10;;;;;;;;;;5045132;28;20209;-26
2023/05/11 08:35:39;;;;;;;1.47;1.03;;;;;;;;;;5043040;28;20229;-28
2023/05/11 08:38:06;;;;;;;1.00;0.90;;;;;;;;;;5040964;28;20218;-30
2023/05/11 08:40:33;;;;;;;1.27;1.17;;;;;;;;;;5041241;28;20202;-27
2023/05/11 08:43:06;;;;;;;1.10;1.10;;;;;;;;;;5043777;28;20291;-28
2023/05/11 08:45:34;;;;;;;1.33;1.23;;;;;;;;;;5043385;28;20234;-29
2023/05/11 08:48:02;;;;;;;1.00;1.00;;;;;;;;;;5053564;28;20201;-25
2023/05/11 08:50:31;;;;;;;1.73;1.20;;;;;;;;;;5037529;28;20221;-28
2023/05/11 08:52:58;;;;;;;1.40;1.30;;;;;;;;;;5046041;28;20234;-27
2023/05/11 08:55:27;;;;;;;1.27;1.17;;;;;;;;;;5049421;28;20443;-31
2023/05/11 08:57:56;;;;;;;1.23;1.23;;;;;;;;;;5043703;28;20198;-31
2023/05/11 09:00:27;;;;;;;1.67;1.30;;;;;;;;;;5041527;28;20209;-30
2023/05/11 09:02:54;;;;;;;1.13;1.00;;;;;;;;;;5041520;28;20214;-28
2023/05/11 09:05:22;;;;;;;1.23;1.23;;;;;;;;;;5042359;28;20218;-30
2023/05/11 09:07:51;;;;;;;1.67;1.10;;;;;;;;;;5039928;28;20206;-27
2023/05/11 09:10:18;;;;;;;1.30;1.20;;;;;;;;;;5045835;28;20319;-28
2023/05/11 09:12:45;;;;;;;1.57;1.47;;;;;;;;;;5037207;28;20194;-26
2023/05/11 09:15:12;;;;;;;1.30;1.10;;;;;;;;;;5037156;28;20224;-28
2023/05/11 09:17:41;;;;;;;2.63;1.10;;;;;;;;;;5040825;28;20209;-28
2023/05/11 09:20:09;;;;;;;1.40;1.30;;;;;;;;;;5041210;28;20208;-31
2023/05/11 09:22:41;;;;;;;1.27;1.20;;;;;;;;;;5040836;28;20206;-28
2023/05/11 09:25:11;;;;;;;1.23;0.90;;;;;;;;;;5038803;28;20248;-28
2023/05/11 09:27:41;;;;;;;2.40;1.20;;;;;;;;;;5042750;28;20198;-28
2023/05/11 09:30:13;;;;;;;2.80;1.63;;;;;;;;;;5038456;28;20222;-28
2023/05/11 09:32:54;;;;;;;2.00;1.23;;;;;;;;;;5038431;28;20249;-25
2023/05/11 09:35:25;;;;;;;1.50;1.07;;;;;;;;;;5039387;28;20260;-28
2023/05/11 09:38:03;;;;;;;3.80;1.30;;;;;;;;;;5039491;28;20287;-27
2023/05/11 09:40:30;;;;;;;1.30;1.20;;;;;;;;;;5045986;28;20202;-29
2023/05/11 09:42:58;;;;;;;1.20;1.10;;;;;;;;;;5042003;28;20199;-29
2023/05/11 09:45:35;;;;;;;1.90;1.47;;;;;;;;;;5040986;28;20235;-29
2023/05/11 09:48:04;;;;;;;1.40;1.30;;;;;;;;;;5034010;28;20197;-29
2023/05/11 09:50:35;;;;;;;1.50;1.40;;;;;;;;;;5042814;28;20230;-28
2023/05/11 09:53:02;;;;;;;1.87;1.63;;;;;;;;;;5038021;28;20203;-29
2023/05/11 09:55:29;;;;;;;1.43;1.33;;;;;;;;;;5037378;28;20221;-26
2023/05/11 09:57:57;;;;;;;1.70;1.60;;;;;;;;;;5040244;28;20210;-27
2023/05/11 10:00:25;;;;;;;1.50;1.40;;;;;;;;;;5037272;28;20231;-28
2023/05/11 10:03:02;;;;;;;1.57;1.47;;;;;;;;;;5043743;28;20220;-26
2023/05/11 10:05:31;;;;;;;1.70;1.33;;;;;;;;;;5047927;28;20217;-31
2023/05/11 10:07:58;;;;;;;1.40;1.30;;;;;;;;;;5049583;28;20260;-28
2023/05/11 10:10:27;;;;;;;1.63;1.53;;;;;;;;;;5042871;28;20252;-26
2023/05/11 10:12:55;;;;;;;1.90;1.40;;;;;;;;;;5040755;28;20202;-26
2023/05/11 10:15:25;;;;;;;1.93;1.70;;;;;;;;;;5037688;28;20223;-26
2023/05/11 10:17:52;;;;;;;1.27;1.27;;;;;;;;;;5043911;28;20229;-27
2023/05/11 10:20:21;;;;;;;2.53;1.50;;;;;;;;;;5042390;28;20194;-28
2023/05/11 10:22:51;;;;;;;1.57;1.47;;;;;;;;;;5043230;28;20199;-27
2023/05/11 10:25:18;;;;;;;1.77;1.63;;;;;;;;;;5039684;28;20226;-26
2023/05/11 10:27:46;;;;;;;1.53;1.43;;;;;;;;;;5046441;28;20220;-27
2023/05/11 10:30:13;;;;;;;2.03;1.73;;;;;;;;;;5047096;28;20210;-28
2023/05/11 10:32:41;;;;;;;2.10;1.60;;;;;;;;;;5043979;28;20212;-29
2023/05/11 10:35:09;;;;;;;1.80;1.50;;;;;;;;;;5042382;28;20244;-27
2023/05/11 10:37:36;;;;;;;2.00;1.63;;;;;;;;;;5052380;28;20208;-29
2023/05/11 10:40:06;;;;;;;26.67;3.63;;;;;;;;;;5036184;28;20212;-28
2023/05/11 10:42:40;;;;;;;39.57;5.97;;;;;;;;;;5038315;28;20210;-30
2023/05/11 10:45:20;;;;;;;7.07;2.17;;;;;;;;;;5043498;28;20236;-26
2023/05/11 10:48:06;;;;;;;56.40;8.97;;;;;;;;;;5050372;28;20205;-30
2023/05/11 10:50:40;;;;;;;12.03;3.47;;;;;;;;;;5039766;28;20229;-26
2023/05/11 10:53:17;;;;;;;5.87;1.80;;;;;;;;;;5039257;28;20221;-26
2023/05/11 10:55:53;;;;;;;4.53;1.50;;;;;;;;;;5042768;28;22213;-27
2023/05/11 10:58:24;;;;;;;2.77;1.30;;;;;;;;;;5046564;28;20201;-27
2023/05/11 11:01:06;;;;;;;1.37;1.20;;;;;;;;;;5049684;28;20198;-26
2023/05/11 11:03:33;;;;;;;4.00;1.77;;;;;;;;;;5055458;28;20204;-29
2023/05/11 11:06:01;;;;;;;1.20;1.10;;;;;;;;;;5056874;28;20279;-26
2023/05/11 11:08:28;;;;;;;4.30;1.93;;;;;;;;;;5047765;28;20217;-29
2023/05/11 11:10:57;;;;;;;5.83;2.10;;;;;;;;;;5050975;28;20221;-30
2023/05/11 11:13:24;;;;;;;1.70;1.33;;;;;;;;;;5044826;28;20206;-25
2023/05/11 11:16:10;;;;;;;10.33;2.40;;;;;;;;;;5041752;28;20222;-30
2023/05/11 11:18:38;;;;;;;1.20;1.10;;;;;;;;;;5055110;28;20210;-27
2023/05/11 11:21:05;;;;;;;17.47;3.30;;;;;;;;;;5044447;28;20202;-26
2023/05/11 11:23:41;;;;;;;3.37;1.73;;;;;;;;;;5036394;28;20213;-28
2023/05/11 11:26:10;;;;;;;9.97;2.63;;;;;;;;;;5054473;28;20224;-27
2023/05/11 11:29:08;;;;;;;2.70;1.77;;;;;;;;;;5046827;28;20214;-27
2023/05/11 11:31:36;;;;;;;2.93;1.40;;;;;;;;;;5045314;28;20335;-27
2023/05/11 11:34:23;;;;;;;1.50;1.40;;;;;;;;;;5050222;28;20209;-28
2023/05/11 11:37:08;;;;;;;1.70;1.60;;;;;;;;;;5042820;28;20224;-28
2023/05/11 11:39:59;;;;;;;3.03;1.87;;;;;;;;;;5049076;28;20198;-27
2023/05/11 11:42:36;;;;;;;1.50;1.40;;;;;;;;;;5043989;28;20202;-30
2023/05/11 11:45:22;;;;;;;4.03;1.73;;;;;;;;;;5049002;28;20198;-29
2023/05/11 11:48:04;;;;;;;2.20;1.70;;;;;;;;;;5045896;28;20203;-26
2023/05/11 11:50:31;;;;;;;2.33;1.40;;;;;;;;;;5047889;28;20197;-27
2023/05/11 11:52:58;;;;;;;5.93;2.03;;;;;;;;;;5047513;28;20203;-27
2023/05/11 11:55:45;;;;;;;2.30;1.57;;;;;;;;;;5054307;28;20225;-28
2023/05/11 11:58:13;;;;;;;2.10;1.53;;;;;;;;;;5054797;28;20206;-27
2023/05/11 12:00:42;;;;;;;3.37;1.70;;;;;;;;;;5047295;28;20213;-27
2023/05/11 12:03:13;;;;;;;1.87;1.67;;;;;;;;;;5611336;23;21368;-30
2023/05/11 12:08:40;;;;;;;1.77;1.20;;;;;;;;;;5326860;22;20275;-29
2023/05/11 12:11:15;;;;;;;1.10;0.97;;;;;;;;;;5075046;28;20596;-29
2023/05/11 12:13:50;;;;;;;1.20;1.10;;;;;;;;;;5066081;28;20217;-30
2023/05/11 12:19:03;;;;;;;3.47;1.93;;;;;;;;;;5058349;28;20212;-28
2023/05/11 12:21:44;;;;;;;0.77;0.70;;;;;;;;;;5048558;28;20202;-31
2023/05/11 12:24:15;;;;;;;3.57;1.30;;;;;;;;;;5045942;28;20271;-27
2023/05/11 12:26:51;;;;;;;0.90;0.73;;;;;;;;;;5053516;28;20253;-30
2023/05/11 12:29:21;;;;;;;1.27;0.80;;;;;;;;;;5051526;28;20212;-31
2023/05/11 12:31:55;;;;;;;1.00;1.00;;;;;;;;;;5048637;28;20217;-29
2023/05/11 12:34:27;;;;;;;0.80;0.60;;;;;;;;;;5062329;28;20205;-28
2023/05/11 12:37:00;;;;;;;1.00;0.90;;;;;;;;;;5054940;28;20265;-29
2023/05/11 12:39:30;;;;;;;1.60;0.90;;;;;;;;;;5044148;28;20217;-31
2023/05/11 12:41:58;;;;;;;1.13;1.10;;;;;;;;;;5048294;28;20205;-30
2023/05/11 12:44:29;;;;;;;1.33;0.87;;;;;;;;;;5046458;28;20293;-28
2023/05/11 12:46:57;;;;;;;1.60;1.10;;;;;;;;;;5046332;28;20244;-30
2023/05/11 12:49:32;;;;;;;1.77;1.00;;;;;;;;;;5056637;28;20197;-28
2023/05/11 12:52:08;;;;;;;2.33;1.03;;;;;;;;;;5047187;28;20222;-29
2023/05/11 12:54:42;;;;;;;1.30;1.10;;;;;;;;;;5049890;28;20219;-32
2023/05/11 12:57:35;;;;;;;0.87;0.87;;;;;;;;;;5058191;28;20251;-29
2023/05/11 13:00:20;;;;;;;1.03;0.90;;;;;;;;;;5079735;22;20233;-29
2023/05/11 13:02:52;;;;;;;0.80;0.80;;;;;;;;;;5045637;28;20211;-27
2023/05/11 13:05:25;;;;;;;2.10;0.80;;;;;;;;;;5048720;28;20261;-29
2023/05/11 13:08:10;;;;;;;1.67;0.90;;;;;;;;;;5039175;28;20292;-28
2023/05/11 13:10:42;;;;;;;0.80;0.80;;;;;;;;;;5032342;28;20333;-27
2023/05/11 13:13:14;;;;;;;0.77;0.70;;;;;;;;;;5029432;28;20294;-29
2023/05/11 13:16:00;;;;;;;4.90;0.83;;;;;;;;;;5027250;28;20223;-29
2023/05/11 13:18:28;;;;;;;0.70;0.70;;;;;;;;;;5032846;28;20229;-25
2023/05/11 13:21:12;;;;;;;0.70;0.70;;;;;;;;;;5036210;28;20211;-28
2023/05/11 13:23:41;;;;;;;3.60;0.80;;;;;;;;;;5034065;28;20225;-25
2023/05/11 13:26:12;;;;;;;0.53;0.53;;;;;;;;;;5034438;28;20226;-26
2023/05/11 13:34:10;;;;;;;2.67;0.67;;;;;;;;;;5031417;28;20208;-28
2023/05/11 13:36:49;;;;;;;0.70;0.70;;;;;;;;;;5041645;28;20309;-30
2023/05/11 13:39:24;;;;;;;1.33;0.80;;;;;;;;;;5047145;28;20191;-27
2023/05/11 13:41:52;;;;;;;2.47;0.73;;;;;;;;;;5028080;28;20289;-28
2023/05/11 13:44:25;;;;;;;0.70;0.70;;;;;;;;;;5014441;28;20202;-29
2023/05/11 13:47:12;;;;;;;0.83;0.73;;;;;;;;;;5035070;28;20230;-26
2023/05/11 13:49:49;;;;;;;0.70;0.70;;;;;;;;;;5039381;28;20197;-30
2023/05/11 13:52:23;;;;;;;0.70;0.70;;;;;;;;;;5046620;28;20218;-30
2023/05/11 13:54:56;;;;;;;0.87;0.63;;;;;;;;;;5031083;28;20348;-28
2023/05/11 13:57:24;;;;;;;1.03;0.80;;;;;;;;;;5039140;28;20209;-26
2023/05/11 14:00:04;;;;;;;0.80;0.80;;;;;;;;;;5039806;28;20285;-29
2023/05/11 14:02:41;;;;;;;1.10;0.60;;;;;;;;;;5030915;28;20206;-27
2023/05/11 14:05:17;;;;;;;1.40;0.53;;;;;;;;;;5037794;28;20214;-26
2023/05/11 14:07:47;;;;;;;2.43;0.70;;;;;;;;;;5045867;28;20265;-31
2023/05/11 14:10:20;;;;;;;0.60;0.60;;;;;;;;;;5038200;28;20249;-29
2023/05/11 14:12:55;;;;;;;0.70;0.70;;;;;;;;;;5036450;28;20230;-32
2023/05/11 14:15:24;;;;;;;0.77;0.60;;;;;;;;;;5025143;28;20228;-29
2023/05/11 14:17:52;;;;;;;0.60;0.60;;;;;;;;;;5038284;28;20203;-27
2023/05/11 14:20:29;;;;;;;0.70;0.70;;;;;;;;;;5035277;28;20204;-30
2023/05/11 14:23:06;;;;;;;1.03;0.80;;;;;;;;;;5030285;28;20198;-28
2023/05/11 14:25:39;;;;;;;0.93;0.60;;;;;;;;;;5024011;28;20229;-30
2023/05/11 14:28:09;;;;;;;4.47;0.93;;;;;;;;;;5035687;28;20199;-28
2023/05/11 14:30:39;;;;;;;0.93;0.80;;;;;;;;;;5033614;28;20223;-30
2023/05/11 14:33:19;;;;;;;0.63;0.63;;;;;;;;;;5031766;28;20223;-29
2023/05/11 14:35:54;;;;;;;0.60;0.60;;;;;;;;;;5031490;28;20230;-31
2023/05/11 14:38:22;;;;;;;1.20;0.53;;;;;;;;;;5045290;28;20200;-31
2023/05/11 14:40:53;;;;;;;1.53;0.70;;;;;;;;;;5030154;28;20226;-31
2023/05/11 14:43:23;;;;;;;0.80;0.80;;;;;;;;;;5023934;28;20275;-30
2023/05/11 14:46:00;;;;;;;0.73;0.73;;;;;;;;;;5027429;28;20253;-28
2023/05/11 14:48:35;;;;;;;0.80;0.80;;;;;;;;;;5033154;28;20220;-28
2023/05/11 14:51:06;;;;;;;0.80;0.80;;;;;;;;;;5029719;28;20210;-27
2023/05/11 14:53:38;;;;;;;0.73;0.73;;;;;;;;;;5030680;28;20317;-32
2023/05/11 14:56:12;;;;;;;1.70;0.87;;;;;;;;;;5034373;28;20238;-29
2023/05/11 14:58:45;;;;;;;0.63;0.63;;;;;;;;;;5034454;28;20293;-32
2023/05/11 15:01:15;;;;;;;0.70;0.70;;;;;;;;;;5031118;28;20225;-28
2023/05/11 15:03:44;;;;;;;0.70;0.70;;;;;;;;;;5033569;28;20222;-30
2023/05/11 15:06:20;;;;;;;0.63;0.63;;;;;;;;;;5023805;28;20257;-31
2023/05/11 15:08:57;;;;;;;0.83;0.83;;;;;;;;;;5017931;28;20202;-32
2023/05/11 15:11:28;;;;;;;0.90;0.90;;;;;;;;;;5032032;28;20210;-27
2023/05/11 15:14:00;;;;;;;0.80;0.80;;;;;;;;;;5033365;28;20289;-27